Time;durP1;ratioP1;P1;durP2;ratioP2;P2;SDS_P1;SDS_P2;PMS_P1;PMS_P2;Temp;Humidity;BMP_temperature;BMP_pressure;BME280_temperature;BME280_humidity;BME280_pressure;Samples;Min_cycle;Max_cycle;Signal;HPM_P1;HPM_P2
2023/06/07 00:00:08;;;;;;;5.30;4.00;;;19.00;1.00;;;;;;5051498;28;20231;-75
2023/06/07 00:02:34;;;;;;;4.53;3.50;;;19.00;1.00;;;;;;5051753;28;20813;-75
2023/06/07 00:04:59;;;;;;;4.30;3.70;;;19.00;1.00;;;;;;5051335;28;20511;-74
2023/06/07 00:07:25;;;;;;;4.57;3.60;;;19.00;1.00;;;;;;5051695;28;20446;-76
2023/06/07 00:09:51;;;;;;;4.43;3.60;;;18.90;1.00;;;;;;5050476;28;20181;-75
2023/06/07 00:12:16;;;;;;;9.57;4.00;;;18.90;1.00;;;;;;5049776;28;20192;-75
2023/06/07 00:14:43;;;;;;;4.27;3.77;;;19.00;1.00;;;;;;5051337;28;20201;-73
2023/06/07 00:17:09;;;;;;;6.30;3.60;;;18.90;1.00;;;;;;5051128;28;20663;-75
2023/06/07 00:19:35;;;;;;;4.00;3.57;;;18.90;1.00;;;;;;5050181;28;20427;-74
2023/06/07 00:22:02;;;;;;;6.43;4.20;;;18.90;1.00;;;;;;5051255;28;20462;-75
2023/06/07 00:24:27;;;;;;;4.47;3.50;;;18.90;1.00;;;;;;5051243;28;20279;-75
2023/06/07 00:26:53;;;;;;;4.80;3.90;;;18.90;1.00;;;;;;5050970;28;20494;-74
2023/06/07 00:29:19;;;;;;;4.57;3.47;;;18.90;1.00;;;;;;5049491;28;20185;-75
2023/06/07 00:31:44;;;;;;;5.27;3.90;;;18.90;1.00;;;;;;5051002;28;20208;-75
2023/06/07 00:34:10;;;;;;;6.80;3.70;;;19.00;1.00;;;;;;5045460;28;20590;-75
2023/06/07 00:36:36;;;;;;;5.00;3.63;;;19.00;1.00;;;;;;5049598;28;20212;-75
2023/06/07 00:39:02;;;;;;;6.10;3.70;;;19.00;1.00;;;;;;5050528;28;20203;-75
2023/06/07 00:41:28;;;;;;;4.73;3.63;;;19.00;1.00;;;;;;5050896;28;20263;-75
2023/06/07 00:43:53;;;;;;;5.40;3.77;;;19.00;1.00;;;;;;5050929;28;20533;-75
2023/06/07 00:46:21;;;;;;;4.67;3.77;;;19.00;1.00;;;;;;5050064;28;20275;-74
2023/06/07 00:48:48;;;;;;;4.67;3.70;;;19.00;1.00;;;;;;5050655;28;20326;-74
2023/06/07 00:51:14;;;;;;;6.10;3.57;;;19.00;1.00;;;;;;5050258;28;20803;-75
2023/06/07 00:53:42;;;;;;;5.40;3.80;;;19.00;1.00;;;;;;5050492;28;20463;-75
2023/06/07 00:56:08;;;;;;;4.33;3.87;;;19.00;1.00;;;;;;5048761;28;20182;-75
2023/06/07 00:58:34;;;;;;;4.20;3.43;;;19.00;1.00;;;;;;5049720;28;20980;-77
2023/06/07 01:01:01;;;;;;;4.83;3.70;;;19.00;1.00;;;;;;5050035;28;20669;-74
2023/06/07 01:03:29;;;;;;;4.47;3.87;;;19.00;1.00;;;;;;5050757;28;20527;-75
2023/06/07 01:05:54;;;;;;;6.17;3.80;;;19.00;1.00;;;;;;5050396;28;20424;-75
2023/06/07 01:08:21;;;;;;;5.40;4.10;;;19.00;1.00;;;;;;5049962;28;20423;-75
2023/06/07 01:10:48;;;;;;;4.80;4.00;;;19.00;1.00;;;;;;5050378;28;20215;-75
2023/06/07 01:13:15;;;;;;;4.93;4.17;;;19.00;1.00;;;;;;5049875;28;20825;-74
2023/06/07 01:15:41;;;;;;;4.23;3.43;;;;;;;;;;5050252;28;20431;-75
2023/06/07 01:18:09;;;;;;;5.60;4.00;;;19.00;1.00;;;;;;5049723;28;20495;-75
2023/06/07 01:20:37;;;;;;;5.43;3.90;;;19.00;1.00;;;;;;5048949;28;20940;-75
2023/06/07 01:23:07;;;;;;;5.83;3.60;;;18.90;1.00;;;;;;5049737;28;20557;-73
2023/06/07 01:25:33;;;;;;;5.00;4.00;;;18.90;1.00;;;;;;5049218;28;20725;-75
2023/06/07 01:28:00;;;;;;;6.27;4.03;;;18.90;1.00;;;;;;5049501;28;20429;-73
2023/06/07 01:30:31;;;;;;;4.83;4.20;;;18.80;1.00;;;;;;5050339;28;20181;-78
2023/06/07 01:32:58;;;;;;;5.87;4.10;;;18.70;1.00;;;;;;5048620;28;20447;-76
2023/06/07 01:35:24;;;;;;;5.07;3.93;;;18.60;1.00;;;;;;5040690;28;20431;-75
2023/06/07 01:37:51;;;;;;;7.53;4.00;;;18.60;1.00;;;;;;5049637;28;20961;-75
2023/06/07 01:40:18;;;;;;;5.40;4.33;;;18.50;1.00;;;;;;5049902;28;20423;-75
2023/06/07 01:42:44;;;;;;;7.33;3.97;;;18.30;1.00;;;;;;5049908;28;20428;-75
2023/06/07 01:45:10;;;;;;;6.13;4.47;;;18.30;1.00;;;;;;5049771;28;20434;-74
2023/06/07 01:47:36;;;;;;;4.63;4.13;;;18.30;1.00;;;;;;5048714;28;20432;-75
2023/06/07 01:50:02;;;;;;;6.23;4.00;;;18.10;1.00;;;;;;5048315;28;20643;-74
2023/06/07 01:52:28;;;;;;;5.07;4.20;;;18.00;1.00;;;;;;5049899;28;20435;-75
2023/06/07 01:54:55;;;;;;;7.83;4.40;;;17.90;1.00;;;;;;5048310;28;20220;-74
2023/06/07 01:57:50;;;;;;;5.40;4.00;;;17.80;1.00;;;;;;5047679;28;20215;-77
2023/06/07 02:00:40;;;;;;;5.10;4.50;;;17.70;1.00;;;;;;5048649;28;20848;-75
2023/06/07 02:03:14;;;;;;;4.93;4.40;;;17.60;1.00;;;;;;5049377;28;20637;-75
2023/06/07 02:05:46;;;;;;;5.27;3.90;;;17.60;1.00;;;;;;5049571;28;20481;-75
2023/06/07 02:08:32;;;;;;;4.50;4.10;;;17.40;1.00;;;;;;5049619;28;20438;-75
2023/06/07 02:10:58;;;;;;;8.27;4.47;;;17.40;1.00;;;;;;5053896;28;20797;-75
2023/06/07 02:13:27;;;;;;;4.37;3.70;;;17.30;1.00;;;;;;5053631;28;20589;-75
2023/06/07 02:15:53;;;;;;;8.33;4.07;;;17.20;1.00;;;;;;5053480;28;20423;-74
2023/06/07 02:18:19;;;;;;;7.30;4.10;;;17.10;1.00;;;;;;5053078;28;20477;-75
2023/06/07 02:20:45;;;;;;;5.17;4.10;;;17.00;1.00;;;;;;5053833;28;20204;-74
2023/06/07 02:23:10;;;;;;;5.63;4.50;;;17.00;1.00;;;;;;5051734;28;20909;-76
2023/06/07 02:25:36;;;;;;;4.97;4.40;;;16.90;1.00;;;;;;5053433;28;20181;-75
2023/06/07 02:28:02;;;;;;;5.93;4.40;;;16.90;1.00;;;;;;5053046;28;20199;-74
2023/06/07 02:30:28;;;;;;;4.60;4.10;;;16.80;1.00;;;;;;5053506;28;20217;-74
2023/06/07 02:32:54;;;;;;;4.30;3.90;;;16.80;1.00;;;;;;5052170;28;20443;-75
2023/06/07 02:35:20;;;;;;;5.60;4.10;;;16.80;1.00;;;;;;5052959;28;20299;-75
2023/06/07 02:37:47;;;;;;;4.30;3.90;;;16.70;1.00;;;;;;5053323;28;20212;-74
2023/06/07 02:40:13;;;;;;;5.30;3.70;;;16.60;1.00;;;;;;5051821;28;20458;-75
2023/06/07 02:42:43;;;;;;;4.30;3.90;;;16.80;1.00;;;;;;5050064;28;20427;-75
2023/06/07 02:45:09;;;;;;;5.67;4.00;;;16.50;1.00;;;;;;5051581;28;20863;-75
2023/06/07 02:47:35;;;;;;;4.83;4.10;;;16.40;1.00;;;;;;5051751;28;20522;-75
2023/06/07 02:50:01;;;;;;;5.90;4.43;;;16.40;1.00;;;;;;5052711;28;20569;-75
2023/06/07 02:52:27;;;;;;;7.67;3.90;;;16.40;1.00;;;;;;5052907;28;20458;-75
2023/06/07 02:54:53;;;;;;;4.90;4.20;;;16.30;1.00;;;;;;5052678;28;20295;-74
2023/06/07 02:57:18;;;;;;;4.70;3.93;;;16.10;1.00;;;;;;5050812;28;21037;-75
2023/06/07 02:59:44;;;;;;;4.00;3.60;;;16.00;1.00;;;;;;5052681;28;20256;-74
2023/06/07 03:02:10;;;;;;;4.47;4.07;;;16.00;1.00;;;;;;5052615;28;20260;-75
2023/06/07 03:04:38;;;;;;;4.80;4.00;;;15.90;1.00;;;;;;5052671;28;20530;-74
2023/06/07 03:07:05;;;;;;;6.10;4.40;;;15.90;1.00;;;;;;5052294;28;20246;-74
2023/06/07 03:09:30;;;;;;;7.10;4.27;;;15.90;1.00;;;;;;5052812;28;20603;-73
2023/06/07 03:11:56;;;;;;;4.70;4.20;;;15.90;1.00;;;;;;5052752;28;20967;-75
2023/06/07 03:14:23;;;;;;;6.40;5.17;;;15.90;1.00;;;;;;5050790;28;20197;-74
2023/06/07 03:16:48;;;;;;;4.67;4.20;;;15.90;1.00;;;;;;5052626;28;20253;-74
2023/06/07 03:19:14;;;;;;;9.70;4.30;;;15.80;1.00;;;;;;5050853;28;20450;-75
2023/06/07 03:21:44;;;;;;;5.67;4.53;;;15.80;1.00;;;;;;5052139;28;20650;-75
2023/06/07 03:24:16;;;;;;;4.30;3.60;;;15.80;1.00;;;;;;5051977;28;20769;-75
2023/06/07 03:26:42;;;;;;;5.30;4.67;;;15.70;1.00;;;;;;5052214;28;20505;-75
2023/06/07 03:29:08;;;;;;;4.93;4.23;;;15.50;1.00;;;;;;5052051;28;20470;-74
2023/06/07 03:31:33;;;;;;;6.00;4.40;;;15.40;1.00;;;;;;5050998;28;20505;-74
2023/06/07 03:33:59;;;;;;;7.70;4.07;;;15.30;1.00;;;;;;5050925;28;20330;-74
2023/06/07 03:36:28;;;;;;;4.30;3.90;;;15.30;1.00;;;;;;5050785;28;20182;-74
2023/06/07 03:38:55;;;;;;;4.33;3.93;;;15.30;1.00;;;;;;5051794;28;20215;-76
2023/06/07 03:41:21;;;;;;;5.73;4.20;;;15.40;1.00;;;;;;5050386;28;20432;-73
2023/06/07 03:43:47;;;;;;;4.73;4.23;;;15.50;1.00;;;;;;5052009;28;20791;-75
2023/06/07 03:46:12;;;;;;;7.30;4.00;;;15.60;1.00;;;;;;5051856;28;20590;-74
2023/06/07 03:48:38;;;;;;;4.73;4.30;;;15.60;1.00;;;;;;5051812;28;20201;-74
2023/06/07 03:51:05;;;;;;;6.13;4.23;;;15.70;1.00;;;;;;5051499;28;20181;-74
2023/06/07 03:53:31;;;;;;;5.70;4.60;;;15.70;1.00;;;;;;5075260;22;20227;-71
2023/06/07 03:55:56;;;;;;;6.43;4.47;;;15.70;1.00;;;;;;5051811;28;20498;-71
2023/06/07 03:58:24;;;;;;;7.97;4.53;;;15.70;1.00;;;;;;5050967;28;20181;-71
2023/06/07 04:00:51;;;;;;;4.77;4.03;;;15.60;1.00;;;;;;5052423;28;20209;-71
2023/06/07 04:03:17;;;;;;;6.03;4.67;;;15.60;1.00;;;;;;5050419;28;20546;-72
2023/06/07 04:05:42;;;;;;;6.97;4.67;;;15.60;1.00;;;;;;5051862;28;20875;-72
2023/06/07 04:08:09;;;;;;;6.33;4.40;;;15.70;1.00;;;;;;5050286;28;20201;-71
2023/06/07 04:10:35;;;;;;;4.77;4.37;;;15.60;1.00;;;;;;5052105;28;20178;-71
2023/06/07 04:13:00;;;;;;;7.20;4.53;;;15.60;1.00;;;;;;5051689;28;20427;-71
2023/06/07 04:15:26;;;;;;;5.23;4.73;;;15.60;1.00;;;;;;5052037;28;20223;-71
2023/06/07 04:17:51;;;;;;;6.27;4.67;;;15.50;1.00;;;;;;5051848;28;20185;-71
2023/06/07 04:20:17;;;;;;;5.90;4.80;;;15.60;1.00;;;;;;5052042;28;20197;-72
2023/06/07 04:22:42;;;;;;;11.00;5.23;;;15.60;1.00;;;;;;5051975;28;20220;-71
2023/06/07 04:25:08;;;;;;;5.07;4.57;;;16.70;1.00;;;;;;5049527;28;20223;-71
2023/06/07 04:27:34;;;;;;;5.77;4.87;;;15.50;1.00;;;;;;5051423;28;20579;-71
2023/06/07 04:30:02;;;;;;;5.03;4.53;;;15.50;1.00;;;;;;5051753;28;20717;-71
2023/06/07 04:32:28;;;;;;;5.70;4.70;;;15.50;1.00;;;;;;5050391;28;20173;-71
2023/06/07 04:34:55;;;;;;;6.73;5.37;;;15.50;1.00;;;;;;5050121;28;21038;-71
2023/06/07 04:37:20;;;;;;;13.53;5.40;;;15.40;1.00;;;;;;5050126;28;20423;-71
2023/06/07 04:39:48;;;;;;;6.70;4.60;;;15.40;1.00;;;;;;5051306;28;20798;-71
2023/06/07 04:42:16;;;;;;;6.13;5.10;;;15.30;1.00;;;;;;5051352;28;20181;-71
2023/06/07 04:44:42;;;;;;;5.67;5.03;;;15.20;1.00;;;;;;5051385;28;20447;-72
2023/06/07 04:47:09;;;;;;;5.77;5.17;;;15.10;1.00;;;;;;5049730;28;20467;-71
2023/06/07 04:49:35;;;;;;;5.57;4.63;;;15.10;1.00;;;;;;5050015;28;20432;-71
2023/06/07 04:52:02;;;;;;;7.00;5.13;;;15.10;1.00;;;;;;5051016;28;20415;-71
2023/06/07 04:54:29;;;;;;;7.43;4.90;;;15.10;1.00;;;;;;5049646;28;20481;-72
2023/06/07 04:56:56;;;;;;;5.97;5.37;;;15.10;1.00;;;;;;5047863;28;20427;-71
2023/06/07 04:59:23;;;;;;;5.90;5.03;;;15.20;1.00;;;;;;5049385;28;20938;-71
2023/06/07 05:01:48;;;;;;;7.13;5.60;;;15.30;1.00;;;;;;5050624;28;20427;-71
2023/06/07 05:04:16;;;;;;;6.77;6.07;;;15.50;1.00;;;;;;5049074;28;20501;-71
2023/06/07 05:06:42;;;;;;;9.00;5.70;;;15.60;1.00;;;;;;5050884;28;20223;-71
2023/06/07 05:09:08;;;;;;;6.57;5.87;;;15.70;1.00;;;;;;5050489;28;20431;-71
2023/06/07 05:11:33;;;;;;;7.30;5.80;;;15.70;1.00;;;;;;5050805;28;20188;-71
2023/06/07 05:13:59;;;;;;;7.60;6.20;;;15.70;1.00;;;;;;5050747;28;20203;-71
2023/06/07 05:16:24;;;;;;;6.33;5.70;;;15.80;1.00;;;;;;5048884;28;20178;-72
2023/06/07 05:18:50;;;;;;;6.20;5.60;;;15.90;1.00;;;;;;5050790;28;20181;-71
2023/06/07 05:21:16;;;;;;;6.67;6.00;;;15.90;1.00;;;;;;5049228;28;20242;-71
2023/06/07 05:23:43;;;;;;;7.33;6.00;;;16.00;1.00;;;;;;5050763;28;20286;-71
2023/06/07 05:26:08;;;;;;;7.50;5.93;;;16.10;1.00;;;;;;5050333;28;20424;-71
2023/06/07 05:28:35;;;;;;;9.20;6.20;;;16.10;1.00;;;;;;5050916;28;20513;-72
2023/06/07 05:31:00;;;;;;;8.23;6.27;;;16.20;1.00;;;;;;5049999;28;20179;-70
2023/06/07 05:33:28;;;;;;;7.80;5.87;;;16.30;1.00;;;;;;5050567;28;20447;-71
2023/06/07 05:35:54;;;;;;;8.73;6.50;;;;;;;;;;5049362;28;20169;-71
2023/06/07 05:38:20;;;;;;;8.03;7.23;;;16.60;1.00;;;;;;5050194;28;20506;-71
2023/06/07 05:40:46;;;;;;;7.30;6.60;;;16.70;1.00;;;;;;5050673;28;20428;-71
2023/06/07 05:43:11;;;;;;;10.60;7.40;;;17.00;1.00;;;;;;5048999;28;20239;-71
2023/06/07 05:45:37;;;;;;;10.13;7.57;;;17.00;1.00;;;;;;5048534;28;20681;-71
2023/06/07 05:48:02;;;;;;;10.10;7.97;;;17.10;1.00;;;;;;5050086;28;20215;-71
2023/06/07 05:50:28;;;;;;;9.67;8.13;;;17.20;1.00;;;;;;5050469;28;20177;-71
2023/06/07 05:52:57;;;;;;;10.07;8.23;;;17.40;1.00;;;;;;5050435;28;20174;-71
2023/06/07 05:55:29;;;;;;;9.43;8.37;;;17.30;1.00;;;;;;5048618;28;20192;-72
2023/06/07 05:57:57;;;;;;;16.23;9.10;;;17.40;1.00;;;;;;5048796;28;20477;-72
2023/06/07 06:00:22;;;;;;;10.50;8.23;;;17.50;1.00;;;;;;5048735;28;20519;-71
2023/06/07 06:02:48;;;;;;;9.30;8.27;;;17.60;1.00;;;;;;5046745;28;20879;-71
2023/06/07 06:05:15;;;;;;;9.23;7.70;;;17.70;1.00;;;;;;5049905;28;20567;-71
2023/06/07 06:07:41;;;;;;;12.77;8.97;;;17.70;1.00;;;;;;5045098;28;20239;-71
2023/06/07 06:10:07;;;;;;;13.83;8.13;;;17.90;1.00;;;;;;5048516;28;20990;-71
2023/06/07 06:12:33;;;;;;;9.57;8.53;;;17.90;1.00;;;;;;5050148;28;20420;-72
2023/06/07 06:15:00;;;;;;;9.90;8.90;;;18.10;1.00;;;;;;5050025;28;20200;-71
2023/06/07 06:17:26;;;;;;;11.30;8.57;;;18.20;1.00;;;;;;5048978;28;20181;-71
2023/06/07 06:19:51;;;;;;;11.00;8.10;;;18.30;1.00;;;;;;5050091;28;20431;-71
2023/06/07 06:22:17;;;;;;;13.03;7.97;;;18.40;1.00;;;;;;5040526;28;20268;-71
2023/06/07 06:24:42;;;;;;;10.67;8.33;;;20.30;1.00;;;;;;5049873;28;20205;-71
2023/06/07 06:27:09;;;;;;;9.93;8.30;;;18.50;1.00;;;;;;5049811;28;20683;-72
2023/06/07 06:29:35;;;;;;;9.10;8.10;;;18.70;1.00;;;;;;5049607;28;20533;-71
2023/06/07 06:32:00;;;;;;;10.43;8.30;;;18.90;1.00;;;;;;5049805;28;20185;-72
2023/06/07 06:34:26;;;;;;;11.33;8.10;;;19.10;1.00;;;;;;5048625;28;20201;-72
2023/06/07 06:36:52;;;;;;;10.40;7.50;;;19.30;1.00;;;;;;5049985;28;20169;-72
2023/06/07 06:39:17;;;;;;;9.63;7.57;;;19.40;1.00;;;;;;5049751;28;20841;-71
2023/06/07 06:41:44;;;;;;;11.33;7.50;;;19.50;1.00;;;;;;5049806;28;20180;-71
2023/06/07 06:44:09;;;;;;;11.40;7.47;;;19.50;1.00;;;;;;5049630;28;20201;-71
2023/06/07 06:46:35;;;;;;;8.70;7.33;;;19.60;1.00;;;;;;5048647;28;20427;-71
2023/06/07 06:49:01;;;;;;;8.33;6.47;;;19.70;1.00;;;;;;5048931;28;20212;-71
2023/06/07 06:51:26;;;;;;;8.70;6.37;;;19.90;1.00;;;;;;5048209;28;20179;-71
2023/06/07 06:53:52;;;;;;;12.80;7.00;;;20.00;1.00;;;;;;5048441;28;20201;-71
2023/06/07 06:56:17;;;;;;;8.47;5.60;;;20.10;1.00;;;;;;5048271;28;20548;-71
2023/06/07 06:58:43;;;;;;;8.70;5.90;;;20.20;1.00;;;;;;5053241;28;20655;-72
2023/06/07 07:01:12;;;;;;;7.33;5.60;;;20.40;1.00;;;;;;5051901;28;20663;-71
2023/06/07 07:03:38;;;;;;;7.17;5.53;;;20.60;1.00;;;;;;5052045;28;20200;-72
2023/06/07 07:06:03;;;;;;;7.30;5.60;;;20.70;1.00;;;;;;5052695;28;20427;-71
2023/06/07 07:08:29;;;;;;;7.70;5.50;;;20.90;1.00;;;;;;5052991;28;20200;-71
2023/06/07 07:10:54;;;;;;;7.83;6.57;;;21.10;1.00;;;;;;5051824;28;20554;-71
2023/06/07 07:13:20;;;;;;;8.50;6.60;;;21.30;1.00;;;;;;5052719;28;20205;-71
2023/06/07 07:15:45;;;;;;;6.70;6.00;;;21.40;1.00;;;;;;5053192;28;20176;-71
2023/06/07 07:18:11;;;;;;;7.10;6.00;;;21.60;1.00;;;;;;5052850;28;20215;-71
2023/06/07 07:20:36;;;;;;;7.70;6.40;;;21.80;1.00;;;;;;5053228;28;20674;-71
2023/06/07 07:23:03;;;;;;;9.90;6.57;;;21.90;1.00;;;;;;5052969;28;20259;-71
2023/06/07 07:25:29;;;;;;;7.03;6.23;;;21.90;1.00;;;;;;5052720;28;20181;-71
2023/06/07 07:27:54;;;;;;;8.23;6.80;;;22.00;1.00;;;;;;5051260;28;20462;-71
2023/06/07 07:30:20;;;;;;;6.87;6.17;;;22.00;1.00;;;;;;5052463;28;20187;-71
2023/06/07 07:32:46;;;;;;;9.57;6.50;;;22.00;1.00;;;;;;5053064;28;20173;-71
2023/06/07 07:35:11;;;;;;;8.43;6.87;;;22.00;1.00;;;;;;5052477;28;20206;-71
2023/06/07 07:37:39;;;;;;;14.67;6.70;;;22.10;1.00;;;;;;5052786;28;20192;-71
2023/06/07 07:40:08;;;;;;;7.60;6.83;;;22.30;1.00;;;;;;5052630;28;20204;-71
2023/06/07 07:42:34;;;;;;;8.63;6.60;;;22.50;1.00;;;;;;5044966;28;20420;-71
2023/06/07 07:45:00;;;;;;;7.87;6.70;;;22.90;1.00;;;;;;5052621;28;20800;-71
2023/06/07 07:47:25;;;;;;;7.63;6.80;;;23.10;1.00;;;;;;5052427;28;20215;-72
2023/06/07 07:49:55;;;;;;;8.77;6.80;;;23.00;1.00;;;;;;5051254;28;20663;-71
2023/06/07 07:52:20;;;;;;;7.60;6.73;;;23.00;1.00;;;;;;5052115;28;20181;-71
2023/06/07 07:54:46;;;;;;;7.43;6.63;;;23.30;1.00;;;;;;5051973;28;20466;-71
2023/06/07 07:57:11;;;;;;;10.20;7.50;;;23.50;1.00;;;;;;5048016;28;20557;-71
2023/06/07 07:59:37;;;;;;;8.93;6.67;;;23.90;1.00;;;;;;5052244;28;20702;-71
2023/06/07 08:02:03;;;;;;;11.10;7.80;;;24.40;1.00;;;;;;5052401;28;20562;-71
2023/06/07 08:04:29;;;;;;;9.50;6.90;;;24.80;1.00;;;;;;5050568;28;20196;-71
2023/06/07 08:06:55;;;;;;;8.77;6.93;;;25.00;1.00;;;;;;5051765;28;20208;-71
2023/06/07 08:09:20;;;;;;;8.20;7.40;;;25.20;1.00;;;;;;5051564;28;20651;-71
2023/06/07 08:11:47;;;;;;;8.17;7.10;;;25.10;1.00;;;;;;5052109;28;20173;-71
2023/06/07 08:14:13;;;;;;;9.57;7.37;;;25.10;1.00;;;;;;5050337;28;20574;-71
2023/06/07 08:16:38;;;;;;;8.07;7.07;;;24.50;1.00;;;;;;5051985;28;20423;-71
2023/06/07 08:19:06;;;;;;;7.73;6.93;;;24.50;1.00;;;;;;5051955;28;20543;-71
2023/06/07 08:21:33;;;;;;;8.97;6.90;;;24.90;1.00;;;;;;5051633;28;20434;-71
2023/06/07 08:23:58;;;;;;;10.93;7.43;;;25.20;1.00;;;;;;5052053;28;20435;-71
2023/06/07 08:26:24;;;;;;;7.60;6.80;;;24.90;1.00;;;;;;5050176;28;20799;-71
2023/06/07 08:28:50;;;;;;;7.33;6.40;;;25.00;1.00;;;;;;5051247;28;20197;-72
2023/06/07 08:31:17;;;;;;;6.97;6.23;;;25.40;1.00;;;;;;5050320;28;20176;-71
2023/06/07 08:33:43;;;;;;;8.50;6.20;;;25.30;1.00;;;;;;5051682;28;20196;-71
2023/06/07 08:36:09;;;;;;;7.70;6.00;;;25.20;1.00;;;;;;5051220;28;20755;-71
2023/06/07 08:38:37;;;;;;;7.20;5.77;;;25.30;1.00;;;;;;5050203;28;20253;-71
2023/06/07 08:41:03;;;;;;;6.80;6.07;;;25.60;1.00;;;;;;5051538;28;20192;-71
2023/06/07 08:43:28;;;;;;;7.20;6.50;;;25.70;1.00;;;;;;5050986;28;20503;-71
2023/06/07 08:45:56;;;;;;;7.40;6.00;;;25.60;1.00;;;;;;5051391;28;20180;-72
2023/06/07 08:48:22;;;;;;;7.07;6.37;;;25.60;1.00;;;;;;5050923;28;20286;-71
2023/06/07 08:50:50;;;;;;;8.10;6.47;;;25.70;1.00;;;;;;5051393;28;20518;-71
2023/06/07 08:53:24;;;;;;;6.60;5.83;;;25.70;1.00;;;;;;5049070;28;20976;-71
2023/06/07 08:55:50;;;;;;;8.97;6.80;;;25.80;1.00;;;;;;5049336;28;20434;-71
2023/06/07 08:58:17;;;;;;;6.80;6.10;;;25.80;1.00;;;;;;5046828;28;20473;-71
2023/06/07 09:00:43;;;;;;;8.87;6.17;;;26.40;1.00;;;;;;5051083;28;20431;-71
2023/06/07 09:03:11;;;;;;;10.97;6.50;;;26.20;1.00;;;;;;5050691;28;20477;-72
2023/06/07 09:05:37;;;;;;;7.37;6.30;;;26.20;1.00;;;;;;5050884;28;20281;-71
2023/06/07 09:08:03;;;;;;;8.17;6.47;;;26.40;1.00;;;;;;5050841;28;20553;-71
2023/06/07 09:10:29;;;;;;;6.80;5.97;;;26.60;1.00;;;;;;5050727;28;20208;-71
2023/06/07 09:12:55;;;;;;;6.77;6.07;;;;;;;;;;5050878;28;20450;-71
2023/06/07 09:15:21;;;;;;;8.00;5.83;;;26.90;1.00;;;;;;5050639;28;20191;-71
2023/06/07 09:17:52;;;;;;;7.43;6.50;;;26.90;1.00;;;;;;5049977;28;20646;-71
2023/06/07 09:20:22;;;;;;;8.63;6.23;;;26.80;1.00;;;;;;5049890;28;20184;-71
2023/06/07 09:23:04;;;;;;;6.60;5.90;;;27.30;1.00;;;;;;5050797;28;20189;-72
2023/06/07 09:25:30;;;;;;;8.00;6.37;;;28.80;1.00;;;;;;5050421;28;20738;-71
2023/06/07 09:27:57;;;;;;;6.30;5.70;;;28.70;1.00;;;;;;5050213;28;20282;-71
2023/06/07 09:30:23;;;;;;;10.60;5.67;;;28.00;1.00;;;;;;5050628;28;20207;-71
2023/06/07 09:32:49;;;;;;;8.13;6.40;;;27.60;1.00;;;;;;5050636;28;20226;-72
2023/06/07 09:35:18;;;;;;;10.90;5.97;;;27.30;1.00;;;;;;5050363;28;20207;-71
2023/06/07 09:37:46;;;;;;;6.10;5.03;;;28.60;1.00;;;;;;5050742;28;20675;-71
2023/06/07 09:40:13;;;;;;;5.40;4.80;;;28.60;1.00;;;;;;5050482;28;20203;-72
2023/06/07 09:42:43;;;;;;;5.53;4.78;;;30.30;1.00;;;;;;5050518;28;20192;-71
2023/06/07 09:45:18;;;;;;;6.40;4.85;;;32.00;1.00;;;;;;5050411;28;20430;-72
2023/06/07 09:47:43;;;;;;;4.97;4.45;;;33.40;1.00;;;;;;5042998;28;20208;-72
2023/06/07 09:50:11;;;;;;;4.78;4.25;;;34.30;1.00;;;;;;5049261;28;20180;-72
2023/06/07 09:52:37;;;;;;;4.57;4.10;;;34.60;1.00;;;;;;5048691;28;20192;-72
2023/06/07 09:55:03;;;;;;;5.57;4.38;;;34.60;1.00;;;;;;5095072;22;20303;-76
2023/06/07 09:57:32;;;;;;;5.28;4.07;;;35.30;1.00;;;;;;5026003;28;20185;-77
2023/06/07 10:00:00;;;;;;;4.35;3.95;;;36.10;1.00;;;;;;5030299;28;20181;-76
2023/06/07 10:02:27;;;;;;;4.53;4.05;;;36.50;1.00;;;;;;5030064;28;20550;-76
2023/06/07 10:04:56;;;;;;;6.70;3.88;;;37.00;1.00;;;;;;5030133;28;20255;-76
2023/06/07 10:07:23;;;;;;;3.97;3.58;;;36.30;1.00;;;;;;5029859;28;20671;-76
2023/06/07 10:09:52;;;;;;;4.45;3.70;;;35.10;1.00;;;;;;5030145;28;20260;-75
2023/06/07 10:12:20;;;;;;;4.00;3.40;;;33.70;1.00;;;;;;5029862;28;20601;-76
2023/06/07 10:14:47;;;;;;;4.45;3.88;;;32.60;1.00;;;;;;5029958;28;20197;-75
2023/06/07 10:17:14;;;;;;;4.57;3.80;;;31.20;1.00;;;;;;5030545;28;20204;-76
2023/06/07 10:19:51;;;;;;;8.32;3.85;;;30.20;1.00;;;;;;5030026;28;20197;-76
2023/06/07 10:22:23;;;;;;;4.78;4.03;;;29.70;1.00;;;;;;5029809;28;20275;-75
2023/06/07 10:25:15;;;;;;;5.32;3.90;;;29.40;1.00;;;;;;5029746;28;20575;-77
2023/06/07 10:28:21;;;;;;;5.45;3.85;;;29.60;1.00;;;;;;5029979;28;20630;-76
2023/06/07 10:30:55;;;;;;;7.78;4.47;;;29.50;1.00;;;;;;4990077;28;20232;-75
2023/06/07 10:33:23;;;;;;;4.90;3.58;;;32.80;1.00;;;;;;5024888;28;20246;-76
2023/06/07 10:35:50;;;;;;;4.07;3.40;;;32.80;1.00;;;;;;5034250;28;20185;-76
2023/06/07 10:38:16;;;;;;;4.10;3.55;;;34.50;1.00;;;;;;5033575;28;20185;-77
2023/06/07 10:40:42;;;;;;;3.83;3.30;;;35.10;1.00;;;;;;5033942;28;20188;-76
2023/06/07 10:43:08;;;;;;;4.55;3.75;;;34.80;1.00;;;;;;5033801;28;20189;-76
2023/06/07 10:45:34;;;;;;;4.53;3.83;;;33.90;1.00;;;;;;5031915;28;20205;-76
2023/06/07 10:48:31;;;;;;;5.63;3.90;;;32.90;1.00;;;;;;5033510;28;20201;-76
2023/06/07 10:50:56;;;;;;;4.28;3.88;;;31.90;1.00;;;;;;5034162;28;20180;-75
2023/06/07 10:53:22;;;;;;;7.40;4.25;;;33.40;1.00;;;;;;5032911;28;20189;-75
2023/06/07 10:55:47;;;;;;;4.88;3.70;;;33.50;1.00;;;;;;5033192;28;20630;-75
2023/06/07 10:58:26;;;;;;;3.80;3.30;;;34.00;1.00;;;;;;5029582;28;20224;-76
2023/06/07 11:00:54;;;;;;;3.40;3.00;;;33.70;1.00;;;;;;5026799;28;20185;-76
2023/06/07 11:03:22;;;;;;;4.10;3.53;;;34.30;1.00;;;;;;5032878;28;20753;-75
2023/06/07 11:06:05;;;;;;;4.85;3.40;;;34.50;1.00;;;;;;5033015;28;20217;-76
2023/06/07 11:08:32;;;;;;;3.78;3.25;;;34.90;1.00;;;;;;5031332;28;20212;-76
2023/06/07 11:11:00;;;;;;;3.90;3.40;;;34.30;1.00;;;;;;5033352;28;20192;-76
2023/06/07 11:13:46;;;;;;;4.60;3.60;;;32.70;1.00;;;;;;5031519;28;20177;-76
2023/06/07 11:16:24;;;;;;;5.30;4.00;;;32.70;1.00;;;;;;5025569;28;20207;-76
2023/06/07 11:19:02;;;;;;;4.57;3.78;;;32.30;1.00;;;;;;5025592;28;20268;-76
2023/06/07 11:21:27;;;;;;;4.53;3.58;;;31.90;1.00;;;;;;5031222;28;20177;-77
2023/06/07 11:24:12;;;;;;;5.43;3.72;;;31.60;1.00;;;;;;5032972;28;20212;-75
2023/06/07 11:26:38;;;;;;;5.75;4.00;;;31.10;1.00;;;;;;5032319;28;20704;-75
2023/06/07 11:29:05;;;;;;;4.07;3.55;;;31.00;1.00;;;;;;5032706;28;20312;-76
2023/06/07 11:31:31;;;;;;;4.20;3.75;;;31.00;1.00;;;;;;5032443;28;20185;-75
2023/06/07 11:33:57;;;;;;;5.40;3.53;;;32.40;1.00;;;;;;5033228;28;20197;-76
2023/06/07 11:36:22;;;;;;;4.03;3.60;;;34.40;1.00;;;;;;5032359;28;20217;-76
2023/06/07 11:38:49;;;;;;;4.70;3.72;;;35.70;1.00;;;;;;5031442;28;20177;-76
2023/06/07 11:41:15;;;;;;;3.90;3.50;;;36.80;1.00;;;;;;5032733;28;20217;-76
2023/06/07 11:43:40;;;;;;;3.75;3.35;;;37.80;1.00;;;;;;5030721;28;20283;-76
2023/06/07 11:46:06;;;;;;;5.15;3.58;;;37.30;1.00;;;;;;5032576;28;20455;-76
2023/06/07 11:48:32;;;;;;;4.18;3.60;;;36.60;1.00;;;;;;5030905;28;20683;-76
2023/06/07 11:50:59;;;;;;;7.22;3.70;;;37.90;1.00;;;;;;5032545;28;20184;-76
2023/06/07 11:53:28;;;;;;;4.63;3.75;;;40.20;1.00;;;;;;5032220;28;20641;-76
2023/06/07 11:55:55;;;;;;;4.07;3.58;;;40.20;1.00;;;;;;5031241;28;20280;-76
2023/06/07 11:58:22;;;;;;;3.95;3.55;;;39.70;1.00;;;;;;5027987;28;20636;-76
2023/06/07 12:00:49;;;;;;;5.75;3.95;;;38.20;1.00;;;;;;5031837;28;20539;-76
2023/06/07 12:03:16;;;;;;;4.40;3.63;;;36.00;1.00;;;;;;5031620;28;20547;-75
2023/06/07 12:05:43;;;;;;;4.40;4.00;;;36.10;1.00;;;;;;5031456;28;20173;-76
2023/06/07 12:08:13;;;;;;;4.03;3.63;;;37.60;1.00;;;;;;5031391;28;20254;-76
2023/06/07 12:10:39;;;;;;;4.05;3.65;;;37.80;1.00;;;;;;5031427;28;20185;-76
2023/06/07 12:13:09;;;;;;;4.00;3.60;;;37.00;1.00;;;;;;5031330;28;20340;-76
2023/06/07 12:15:41;;;;;;;7.88;3.85;;;37.00;1.00;;;;;;5031082;28;20197;-76
2023/06/07 12:18:10;;;;;;;4.28;3.83;;;36.80;1.00;;;;;;5031351;28;20212;-75
2023/06/07 12:20:36;;;;;;;4.35;3.83;;;36.00;1.00;;;;;;5031079;28;20270;-76
2023/06/07 12:23:05;;;;;;;4.90;4.10;;;34.60;1.00;;;;;;5027337;28;20228;-76
2023/06/07 12:25:31;;;;;;;6.25;4.50;;;33.60;1.00;;;;;;5030678;28;20722;-76
2023/06/07 12:27:57;;;;;;;6.15;4.60;;;33.60;1.00;;;;;;5031103;28;20201;-76
2023/06/07 12:30:30;;;;;;;6.68;4.55;;;33.40;1.00;;;;;;5030981;28;20636;-76
2023/06/07 12:32:57;;;;;;;5.93;4.65;;;32.80;1.00;;;;;;5031182;28;20264;-76
2023/06/07 12:35:23;;;;;;;7.13;4.57;;;32.40;1.00;;;;;;5028946;28;20206;-77
2023/06/07 12:37:48;;;;;;;5.03;4.53;;;31.80;1.00;;;;;;5029753;28;20189;-76
2023/06/07 12:40:14;;;;;;;5.15;4.30;;;31.20;1.00;;;;;;5030753;28;20193;-76
2023/06/07 12:42:40;;;;;;;4.75;4.25;;;31.80;1.00;;;;;;5030624;28;20485;-76
2023/06/07 12:45:07;;;;;;;7.55;4.65;;;33.70;1.00;;;;;;5030872;28;20204;-76
2023/06/07 12:47:33;;;;;;;4.78;4.28;;;35.40;1.00;;;;;;5030479;28;20836;-76
2023/06/07 12:49:58;;;;;;;4.82;4.32;;;36.70;1.00;;;;;;5030811;28;20213;-76
2023/06/07 12:52:24;;;;;;;6.68;4.60;;;37.40;1.00;;;;;;5030303;28;20683;-76
2023/06/07 12:54:49;;;;;;;4.47;4.03;;;37.80;1.00;;;;;;5029288;28;20761;-76
2023/06/07 12:57:15;;;;;;;5.50;4.10;;;39.20;1.00;;;;;;5025606;28;20277;-76